sensor_id;sensor_type;location;lat;lon;timestamp;P1;durP1;ratioP1;P2;durP2;ratioP2
15608;SDS011;64278;45.642;13.756;2023-05-07T00:01:08;4.43;;;4.03;;
15608;SDS011;64278;45.642;13.756;2023-05-07T00:03:33;4.35;;;4.05;;
15608;SDS011;64278;45.642;13.756;2023-05-07T00:05:59;4.22;;;3.90;;
15608;SDS011;64278;45.642;13.756;2023-05-07T00:08:25;4.13;;;3.83;;
15608;SDS011;64278;45.642;13.756;2023-05-07T00:10:50;4.45;;;4.13;;
15608;SDS011;64278;45.642;13.756;2023-05-07T00:13:16;3.65;;;3.35;;
15608;SDS011;64278;45.642;13.756;2023-05-07T00:15:42;4.22;;;3.83;;
15608;SDS011;64278;45.642;13.756;2023-05-07T00:18:07;4.95;;;3.42;;
15608;SDS011;64278;45.642;13.756;2023-05-07T00:20:33;4.35;;;4.00;;
15608;SDS011;64278;45.642;13.756;2023-05-07T00:22:58;4.40;;;4.00;;
15608;SDS011;64278;45.642;13.756;2023-05-07T00:25:24;3.92;;;3.53;;
15608;SDS011;64278;45.642;13.756;2023-05-07T00:27:50;4.03;;;3.72;;
15608;SDS011;64278;45.642;13.756;2023-05-07T00:30:15;4.28;;;3.90;;
15608;SDS011;64278;45.642;13.756;2023-05-07T00:32:41;4.13;;;3.83;;
15608;SDS011;64278;45.642;13.756;2023-05-07T00:35:07;4.25;;;3.92;;
15608;SDS011;64278;45.642;13.756;2023-05-07T00:37:33;4.03;;;3.72;;
15608;SDS011;64278;45.642;13.756;2023-05-07T00:39:59;4.72;;;4.03;;
15608;SDS011;64278;45.642;13.756;2023-05-07T00:42:24;4.57;;;4.20;;
15608;SDS011;64278;45.642;13.756;2023-05-07T00:44:50;4.40;;;4.05;;
15608;SDS011;64278;45.642;13.756;2023-05-07T00:47:16;4.40;;;4.00;;
15608;SDS011;64278;45.642;13.756;2023-05-07T00:49:42;3.70;;;3.42;;
15608;SDS011;64278;45.642;13.756;2023-05-07T00:52:15;3.97;;;3.67;;
15608;SDS011;64278;45.642;13.756;2023-05-07T00:54:42;3.80;;;3.50;;
15608;SDS011;64278;45.642;13.756;2023-05-07T00:57:09;4.40;;;4.00;;
15608;SDS011;64278;45.642;13.756;2023-05-07T00:59:36;4.30;;;3.90;;
15608;SDS011;64278;45.642;13.756;2023-05-07T01:02:02;4.45;;;4.15;;
15608;SDS011;64278;45.642;13.756;2023-05-07T01:04:27;3.80;;;3.53;;
15608;SDS011;64278;45.642;13.756;2023-05-07T01:06:56;4.80;;;4.40;;
15608;SDS011;64278;45.642;13.756;2023-05-07T01:09:24;4.30;;;4.00;;
15608;SDS011;64278;45.642;13.756;2023-05-07T01:11:50;4.13;;;3.83;;
15608;SDS011;64278;45.642;13.756;2023-05-07T01:14:17;4.15;;;3.85;;
15608;SDS011;64278;45.642;13.756;2023-05-07T01:16:45;4.15;;;3.85;;
15608;SDS011;64278;45.642;13.756;2023-05-07T01:19:11;4.47;;;4.18;;
15608;SDS011;64278;45.642;13.756;2023-05-07T01:21:42;4.20;;;3.90;;
15608;SDS011;64278;45.642;13.756;2023-05-07T01:24:12;4.57;;;4.28;;
15608;SDS011;64278;45.642;13.756;2023-05-07T01:26:38;3.90;;;3.60;;
15608;SDS011;64278;45.642;13.756;2023-05-07T01:29:04;4.50;;;4.20;;
15608;SDS011;64278;45.642;13.756;2023-05-07T01:31:31;4.00;;;3.70;;
15608;SDS011;64278;45.642;13.756;2023-05-07T01:33:59;4.15;;;3.78;;
15608;SDS011;64278;45.642;13.756;2023-05-07T01:36:26;4.53;;;4.13;;
15608;SDS011;64278;45.642;13.756;2023-05-07T01:38:54;3.95;;;3.63;;
15608;SDS011;64278;45.642;13.756;2023-05-07T01:41:22;3.83;;;3.53;;
15608;SDS011;64278;45.642;13.756;2023-05-07T01:43:48;4.50;;;3.90;;
15608;SDS011;64278;45.642;13.756;2023-05-07T01:46:17;4.25;;;3.85;;
15608;SDS011;64278;45.642;13.756;2023-05-07T01:48:43;4.95;;;4.00;;
15608;SDS011;64278;45.642;13.756;2023-05-07T01:51:11;3.88;;;3.67;;
15608;SDS011;64278;45.642;13.756;2023-05-07T01:53:40;4.25;;;3.95;;
15608;SDS011;64278;45.642;13.756;2023-05-07T01:56:06;4.35;;;4.05;;
15608;SDS011;64278;45.642;13.756;2023-05-07T01:58:32;4.10;;;3.70;;
15608;SDS011;64278;45.642;13.756;2023-05-07T02:00:58;4.57;;;4.28;;
15608;SDS011;64278;45.642;13.756;2023-05-07T02:03:24;4.20;;;3.90;;
15608;SDS011;64278;45.642;13.756;2023-05-07T02:05:50;4.22;;;3.78;;
15608;SDS011;64278;45.642;13.756;2023-05-07T02:08:16;3.88;;;3.58;;
15608;SDS011;64278;45.642;13.756;2023-05-07T02:10:41;4.40;;;4.10;;
15608;SDS011;64278;45.642;13.756;2023-05-07T02:13:07;3.58;;;3.38;;
15608;SDS011;64278;45.642;13.756;2023-05-07T02:15:33;3.70;;;3.42;;
15608;SDS011;64278;45.642;13.756;2023-05-07T02:18:02;4.43;;;4.13;;
15608;SDS011;64278;45.642;13.756;2023-05-07T02:20:31;4.10;;;3.80;;
15608;SDS011;64278;45.642;13.756;2023-05-07T02:22:56;3.55;;;3.35;;
15608;SDS011;64278;45.642;13.756;2023-05-07T02:25:22;4.43;;;4.13;;
15608;SDS011;64278;45.642;13.756;2023-05-07T02:27:48;4.18;;;3.78;;
15608;SDS011;64278;45.642;13.756;2023-05-07T02:30:14;4.13;;;3.72;;
15608;SDS011;64278;45.642;13.756;2023-05-07T02:32:40;4.07;;;3.78;;
15608;SDS011;64278;45.642;13.756;2023-05-07T02:35:05;4.13;;;3.80;;
15608;SDS011;64278;45.642;13.756;2023-05-07T02:37:31;3.97;;;3.67;;
15608;SDS011;64278;45.642;13.756;2023-05-07T02:39:57;4.15;;;3.83;;
15608;SDS011;64278;45.642;13.756;2023-05-07T02:42:23;3.80;;;3.50;;
15608;SDS011;64278;45.642;13.756;2023-05-07T02:44:48;3.72;;;3.53;;
15608;SDS011;64278;45.642;13.756;2023-05-07T02:47:14;3.95;;;3.65;;
15608;SDS011;64278;45.642;13.756;2023-05-07T02:49:40;4.22;;;3.92;;
15608;SDS011;64278;45.642;13.756;2023-05-07T02:52:06;3.42;;;3.22;;
15608;SDS011;64278;45.642;13.756;2023-05-07T02:54:32;3.67;;;3.40;;
15608;SDS011;64278;45.642;13.756;2023-05-07T02:56:57;4.07;;;3.78;;
15608;SDS011;64278;45.642;13.756;2023-05-07T02:59:23;3.75;;;3.45;;
15608;SDS011;64278;45.642;13.756;2023-05-07T03:01:51;3.92;;;3.63;;
15608;SDS011;64278;45.642;13.756;2023-05-07T03:04:16;3.47;;;3.28;;
15608;SDS011;64278;45.642;13.756;2023-05-07T03:06:42;3.75;;;3.45;;
15608;SDS011;64278;45.642;13.756;2023-05-07T03:09:08;4.00;;;3.70;;
15608;SDS011;64278;45.642;13.756;2023-05-07T03:11:33;3.97;;;3.75;;
15608;SDS011;64278;45.642;13.756;2023-05-07T03:14:00;3.65;;;3.40;;
15608;SDS011;64278;45.642;13.756;2023-05-07T03:16:26;4.38;;;4.07;;
15608;SDS011;64278;45.642;13.756;2023-05-07T03:18:52;4.05;;;3.75;;
15608;SDS011;64278;45.642;13.756;2023-05-07T03:21:18;3.95;;;3.65;;
15608;SDS011;64278;45.642;13.756;2023-05-07T03:23:44;4.53;;;4.13;;
15608;SDS011;64278;45.642;13.756;2023-05-07T03:26:09;4.03;;;3.67;;
15608;SDS011;64278;45.642;13.756;2023-05-07T03:28:36;3.80;;;3.60;;
15608;SDS011;64278;45.642;13.756;2023-05-07T03:31:02;4.05;;;3.70;;
15608;SDS011;64278;45.642;13.756;2023-05-07T03:33:27;3.63;;;3.33;;
15608;SDS011;64278;45.642;13.756;2023-05-07T03:35:53;3.80;;;3.50;;
15608;SDS011;64278;45.642;13.756;2023-05-07T03:38:19;3.60;;;3.40;;
15608;SDS011;64278;45.642;13.756;2023-05-07T03:40:44;4.00;;;3.65;;
15608;SDS011;64278;45.642;13.756;2023-05-07T03:43:10;3.67;;;3.38;;
15608;SDS011;64278;45.642;13.756;2023-05-07T03:45:36;3.70;;;3.40;;
15608;SDS011;64278;45.642;13.756;2023-05-07T03:48:01;3.63;;;3.33;;
15608;SDS011;64278;45.642;13.756;2023-05-07T03:50:27;3.33;;;3.13;;
15608;SDS011;64278;45.642;13.756;2023-05-07T03:52:53;3.95;;;3.65;;
15608;SDS011;64278;45.642;13.756;2023-05-07T03:55:18;3.80;;;3.38;;
15608;SDS011;64278;45.642;13.756;2023-05-07T03:57:44;4.10;;;3.80;;
15608;SDS011;64278;45.642;13.756;2023-05-07T04:00:10;4.65;;;4.25;;
15608;SDS011;64278;45.642;13.756;2023-05-07T04:02:36;4.05;;;3.75;;
15608;SDS011;64278;45.642;13.756;2023-05-07T04:05:02;4.50;;;4.10;;
15608;SDS011;64278;45.642;13.756;2023-05-07T04:07:28;4.13;;;3.83;;
15608;SDS011;64278;45.642;13.756;2023-05-07T04:09:53;3.60;;;3.22;;
15608;SDS011;64278;45.642;13.756;2023-05-07T04:12:19;3.92;;;3.70;;
15608;SDS011;64278;45.642;13.756;2023-05-07T04:14:45;3.90;;;3.70;;
15608;SDS011;64278;45.642;13.756;2023-05-07T04:17:10;3.50;;;3.30;;
15608;SDS011;64278;45.642;13.756;2023-05-07T04:19:36;3.40;;;3.20;;
15608;SDS011;64278;45.642;13.756;2023-05-07T04:22:02;3.95;;;3.65;;
15608;SDS011;64278;45.642;13.756;2023-05-07T04:24:28;3.58;;;3.38;;
15608;SDS011;64278;45.642;13.756;2023-05-07T04:26:58;3.72;;;3.42;;
15608;SDS011;64278;45.642;13.756;2023-05-07T04:29:23;3.88;;;3.67;;
15608;SDS011;64278;45.642;13.756;2023-05-07T04:31:49;3.28;;;3.08;;
15608;SDS011;64278;45.642;13.756;2023-05-07T04:34:15;3.45;;;3.25;;
15608;SDS011;64278;45.642;13.756;2023-05-07T04:36:41;3.83;;;3.53;;
15608;SDS011;64278;45.642;13.756;2023-05-07T04:39:07;3.70;;;3.40;;
15608;SDS011;64278;45.642;13.756;2023-05-07T04:41:33;3.83;;;3.63;;
15608;SDS011;64278;45.642;13.756;2023-05-07T04:44:01;4.07;;;3.78;;
15608;SDS011;64278;45.642;13.756;2023-05-07T04:46:29;3.55;;;3.25;;
15608;SDS011;64278;45.642;13.756;2023-05-07T04:48:55;3.47;;;3.25;;
15608;SDS011;64278;45.642;13.756;2023-05-07T04:51:21;3.97;;;3.33;;
15608;SDS011;64278;45.642;13.756;2023-05-07T04:53:47;3.67;;;3.47;;
15608;SDS011;64278;45.642;13.756;2023-05-07T04:56:13;3.80;;;3.60;;
15608;SDS011;64278;45.642;13.756;2023-05-07T04:58:39;4.03;;;3.72;;
15608;SDS011;64278;45.642;13.756;2023-05-07T05:01:05;3.47;;;3.28;;
15608;SDS011;64278;45.642;13.756;2023-05-07T05:03:31;3.40;;;3.20;;
15608;SDS011;64278;45.642;13.756;2023-05-07T05:05:56;3.38;;;3.17;;
15608;SDS011;64278;45.642;13.756;2023-05-07T05:08:24;3.35;;;3.15;;
15608;SDS011;64278;45.642;13.756;2023-05-07T05:10:50;3.55;;;3.25;;
15608;SDS011;64278;45.642;13.756;2023-05-07T05:13:16;3.95;;;3.65;;
15608;SDS011;64278;45.642;13.756;2023-05-07T05:15:41;3.80;;;3.50;;
15608;SDS011;64278;45.642;13.756;2023-05-07T05:18:07;3.28;;;3.08;;
15608;SDS011;64278;45.642;13.756;2023-05-07T05:20:33;3.58;;;3.35;;
15608;SDS011;64278;45.642;13.756;2023-05-07T05:22:58;3.50;;;3.30;;
15608;SDS011;64278;45.642;13.756;2023-05-07T05:25:24;3.90;;;3.60;;
15608;SDS011;64278;45.642;13.756;2023-05-07T05:27:50;3.45;;;3.25;;
15608;SDS011;64278;45.642;13.756;2023-05-07T05:30:15;3.67;;;3.47;;
15608;SDS011;64278;45.642;13.756;2023-05-07T05:32:41;3.67;;;3.47;;
15608;SDS011;64278;45.642;13.756;2023-05-07T05:35:07;3.45;;;3.25;;
15608;SDS011;64278;45.642;13.756;2023-05-07T05:37:33;3.88;;;3.53;;
15608;SDS011;64278;45.642;13.756;2023-05-07T05:39:59;3.70;;;3.40;;
15608;SDS011;64278;45.642;13.756;2023-05-07T05:42:24;3.33;;;3.13;;
15608;SDS011;64278;45.642;13.756;2023-05-07T05:44:50;3.53;;;3.28;;
15608;SDS011;64278;45.642;13.756;2023-05-07T05:47:15;3.30;;;3.10;;
15608;SDS011;64278;45.642;13.756;2023-05-07T05:49:41;3.15;;;2.95;;
15608;SDS011;64278;45.642;13.756;2023-05-07T05:52:08;3.60;;;3.40;;
15608;SDS011;64278;45.642;13.756;2023-05-07T05:54:34;3.55;;;3.35;;
15608;SDS011;64278;45.642;13.756;2023-05-07T05:56:59;3.50;;;3.30;;
15608;SDS011;64278;45.642;13.756;2023-05-07T05:59:25;3.53;;;3.30;;
15608;SDS011;64278;45.642;13.756;2023-05-07T06:01:51;3.20;;;3.00;;
15608;SDS011;64278;45.642;13.756;2023-05-07T06:04:16;3.55;;;3.35;;
15608;SDS011;64278;45.642;13.756;2023-05-07T06:06:42;3.33;;;3.13;;
15608;SDS011;64278;45.642;13.756;2023-05-07T06:09:08;4.05;;;3.75;;
15608;SDS011;64278;45.642;13.756;2023-05-07T06:11:33;4.18;;;3.58;;
15608;SDS011;64278;45.642;13.756;2023-05-07T06:13:59;3.60;;;3.40;;
15608;SDS011;64278;45.642;13.756;2023-05-07T06:16:24;3.85;;;3.55;;
15608;SDS011;64278;45.642;13.756;2023-05-07T06:18:50;3.65;;;3.42;;
15608;SDS011;64278;45.642;13.756;2023-05-07T06:21:16;3.20;;;2.97;;
15608;SDS011;64278;45.642;13.756;2023-05-07T06:23:41;3.08;;;2.90;;
15608;SDS011;64278;45.642;13.756;2023-05-07T06:26:07;3.38;;;3.17;;
15608;SDS011;64278;45.642;13.756;2023-05-07T06:28:33;3.63;;;3.42;;
15608;SDS011;64278;45.642;13.756;2023-05-07T06:31:14;3.15;;;2.95;;
15608;SDS011;64278;45.642;13.756;2023-05-07T06:33:41;3.42;;;3.22;;
15608;SDS011;64278;45.642;13.756;2023-05-07T06:36:07;3.58;;;3.38;;
15608;SDS011;64278;45.642;13.756;2023-05-07T06:38:33;3.30;;;3.10;;
15608;SDS011;64278;45.642;13.756;2023-05-07T06:40:58;3.58;;;3.28;;
15608;SDS011;64278;45.642;13.756;2023-05-07T06:43:24;3.60;;;3.40;;
15608;SDS011;64278;45.642;13.756;2023-05-07T06:45:50;3.63;;;3.42;;
15608;SDS011;64278;45.642;13.756;2023-05-07T06:48:15;3.38;;;3.15;;
15608;SDS011;64278;45.642;13.756;2023-05-07T06:50:41;3.30;;;3.10;;
15608;SDS011;64278;45.642;13.756;2023-05-07T06:53:07;3.63;;;3.40;;
15608;SDS011;64278;45.642;13.756;2023-05-07T06:55:32;3.50;;;3.30;;
15608;SDS011;64278;45.642;13.756;2023-05-07T06:57:58;3.10;;;2.90;;
15608;SDS011;64278;45.642;13.756;2023-05-07T07:00:26;3.53;;;3.33;;
15608;SDS011;64278;45.642;13.756;2023-05-07T07:02:53;3.92;;;3.63;;
15608;SDS011;64278;45.642;13.756;2023-05-07T07:05:19;3.58;;;3.38;;
15608;SDS011;64278;45.642;13.756;2023-05-07T07:07:45;3.78;;;3.47;;
15608;SDS011;64278;45.642;13.756;2023-05-07T07:10:17;3.35;;;3.15;;
15608;SDS011;64278;45.642;13.756;2023-05-07T07:12:44;3.25;;;3.05;;
15608;SDS011;64278;45.642;13.756;2023-05-07T07:15:10;4.20;;;3.90;;
15608;SDS011;64278;45.642;13.756;2023-05-07T07:17:36;3.55;;;3.35;;
15608;SDS011;64278;45.642;13.756;2023-05-07T07:20:02;3.67;;;3.47;;
15608;SDS011;64278;45.642;13.756;2023-05-07T07:22:28;2.88;;;2.70;;
15608;SDS011;64278;45.642;13.756;2023-05-07T07:24:54;3.65;;;3.35;;
15608;SDS011;64278;45.642;13.756;2023-05-07T07:27:20;3.47;;;3.28;;
15608;SDS011;64278;45.642;13.756;2023-05-07T07:29:45;3.88;;;3.20;;
15608;SDS011;64278;45.642;13.756;2023-05-07T07:32:11;3.10;;;2.90;;
15608;SDS011;64278;45.642;13.756;2023-05-07T07:34:37;3.00;;;2.80;;
15608;SDS011;64278;45.642;13.756;2023-05-07T07:37:02;3.40;;;3.20;;
15608;SDS011;64278;45.642;13.756;2023-05-07T07:39:31;3.72;;;3.53;;
15608;SDS011;64278;45.642;13.756;2023-05-07T07:41:57;3.90;;;3.60;;
15608;SDS011;64278;45.642;13.756;2023-05-07T07:44:23;3.60;;;3.38;;
15608;SDS011;64278;45.642;13.756;2023-05-07T07:46:48;4.07;;;3.78;;
15608;SDS011;64278;45.642;13.756;2023-05-07T07:49:15;4.07;;;3.78;;
15608;SDS011;64278;45.642;13.756;2023-05-07T07:51:41;4.00;;;3.65;;
15608;SDS011;64278;45.642;13.756;2023-05-07T07:54:06;4.10;;;3.70;;
15608;SDS011;64278;45.642;13.756;2023-05-07T07:56:32;4.03;;;3.72;;
15608;SDS011;64278;45.642;13.756;2023-05-07T07:58:59;4.30;;;3.90;;
15608;SDS011;64278;45.642;13.756;2023-05-07T08:01:25;4.35;;;3.97;;
15608;SDS011;64278;45.642;13.756;2023-05-07T08:03:50;4.70;;;4.05;;
15608;SDS011;64278;45.642;13.756;2023-05-07T08:06:16;3.78;;;3.45;;
15608;SDS011;64278;45.642;13.756;2023-05-07T08:08:42;4.03;;;3.72;;
15608;SDS011;64278;45.642;13.756;2023-05-07T08:11:08;4.03;;;3.65;;
15608;SDS011;64278;45.642;13.756;2023-05-07T08:13:34;4.10;;;3.80;;
15608;SDS011;64278;45.642;13.756;2023-05-07T08:15:59;4.07;;;3.70;;
15608;SDS011;64278;45.642;13.756;2023-05-07T08:18:25;4.35;;;3.95;;
15608;SDS011;64278;45.642;13.756;2023-05-07T08:20:53;3.90;;;3.60;;
15608;SDS011;64278;45.642;13.756;2023-05-07T08:23:19;5.20;;;4.10;;
15608;SDS011;64278;45.642;13.756;2023-05-07T08:25:44;4.25;;;3.95;;
15608;SDS011;64278;45.642;13.756;2023-05-07T08:28:10;4.20;;;3.67;;
15608;SDS011;64278;45.642;13.756;2023-05-07T08:30:36;4.65;;;4.03;;
15608;SDS011;64278;45.642;13.756;2023-05-07T08:33:02;4.82;;;4.20;;
15608;SDS011;64278;45.642;13.756;2023-05-07T08:35:27;5.05;;;4.65;;
15608;SDS011;64278;45.642;13.756;2023-05-07T08:37:53;6.03;;;5.53;;
15608;SDS011;64278;45.642;13.756;2023-05-07T08:40:20;5.97;;;5.43;;
15608;SDS011;64278;45.642;13.756;2023-05-07T08:42:49;5.00;;;4.68;;
15608;SDS011;64278;45.642;13.756;2023-05-07T08:45:21;5.20;;;4.80;;
15608;SDS011;64278;45.642;13.756;2023-05-07T08:47:49;5.45;;;4.95;;
15608;SDS011;64278;45.642;13.756;2023-05-07T08:50:17;5.63;;;5.22;;
15608;SDS011;64278;45.642;13.756;2023-05-07T08:52:44;5.15;;;4.75;;
15608;SDS011;64278;45.642;13.756;2023-05-07T08:55:10;5.40;;;5.00;;
15608;SDS011;64278;45.642;13.756;2023-05-07T08:57:37;4.82;;;4.53;;
15608;SDS011;64278;45.642;13.756;2023-05-07T09:00:03;5.45;;;5.05;;
15608;SDS011;64278;45.642;13.756;2023-05-07T09:02:32;5.90;;;5.50;;
15608;SDS011;64278;45.642;13.756;2023-05-07T09:05:01;5.05;;;4.68;;
15608;SDS011;64278;45.642;13.756;2023-05-07T09:07:27;5.28;;;4.88;;
15608;SDS011;64278;45.642;13.756;2023-05-07T09:09:53;4.95;;;4.55;;
15608;SDS011;64278;45.642;13.756;2023-05-07T09:12:24;4.72;;;4.32;;
15608;SDS011;64278;45.642;13.756;2023-05-07T09:14:50;5.53;;;4.70;;
15608;SDS011;64278;45.642;13.756;2023-05-07T09:17:16;6.13;;;5.57;;
15608;SDS011;64278;45.642;13.756;2023-05-07T09:19:43;5.65;;;5.03;;
15608;SDS011;64278;45.642;13.756;2023-05-07T09:22:10;6.50;;;5.40;;
15608;SDS011;64278;45.642;13.756;2023-05-07T09:24:36;5.85;;;5.35;;
15608;SDS011;64278;45.642;13.756;2023-05-07T09:27:06;6.13;;;5.68;;
15608;SDS011;64278;45.642;13.756;2023-05-07T09:29:33;7.57;;;6.65;;
15608;SDS011;64278;45.642;13.756;2023-05-07T09:32:05;7.68;;;6.88;;
15608;SDS011;64278;45.642;13.756;2023-05-07T09:34:32;7.78;;;7.18;;
15608;SDS011;64278;45.642;13.756;2023-05-07T09:37:04;7.10;;;6.60;;
15608;SDS011;64278;45.642;13.756;2023-05-07T09:39:40;6.43;;;5.93;;
15608;SDS011;64278;45.642;13.756;2023-05-07T09:42:10;6.78;;;6.22;;
15608;SDS011;64278;45.642;13.756;2023-05-07T09:44:45;7.15;;;6.55;;
15608;SDS011;64278;45.642;13.756;2023-05-07T09:47:12;7.47;;;6.85;;
15608;SDS011;64278;45.642;13.756;2023-05-07T09:49:43;6.13;;;5.55;;
15608;SDS011;64278;45.642;13.756;2023-05-07T09:52:13;5.57;;;5.18;;
15608;SDS011;64278;45.642;13.756;2023-05-07T09:54:39;6.68;;;6.07;;
15608;SDS011;64278;45.642;13.756;2023-05-07T09:57:08;6.82;;;6.32;;
15608;SDS011;64278;45.642;13.756;2023-05-07T09:59:36;8.63;;;7.78;;
15608;SDS011;64278;45.642;13.756;2023-05-07T10:02:03;7.47;;;6.88;;
15608;SDS011;64278;45.642;13.756;2023-05-07T10:04:30;7.30;;;6.70;;
15608;SDS011;64278;45.642;13.756;2023-05-07T10:06:57;6.50;;;5.90;;
15608;SDS011;64278;45.642;13.756;2023-05-07T10:09:23;6.30;;;5.80;;
15608;SDS011;64278;45.642;13.756;2023-05-07T10:11:51;6.72;;;6.13;;
15608;SDS011;64278;45.642;13.756;2023-05-07T10:14:17;7.68;;;6.88;;
15608;SDS011;64278;45.642;13.756;2023-05-07T10:16:44;6.90;;;6.30;;
15608;SDS011;64278;45.642;13.756;2023-05-07T10:19:11;8.07;;;7.38;;
15608;SDS011;64278;45.642;13.756;2023-05-07T10:21:37;7.55;;;6.95;;
15608;SDS011;64278;45.642;13.756;2023-05-07T10:24:09;7.03;;;6.32;;
15608;SDS011;64278;45.642;13.756;2023-05-07T10:26:43;6.85;;;6.25;;
15608;SDS011;64278;45.642;13.756;2023-05-07T10:29:21;6.25;;;5.70;;
15608;SDS011;64278;45.642;13.756;2023-05-07T10:34:36;7.30;;;6.80;;
15608;SDS011;64278;45.642;13.756;2023-05-07T10:37:05;6.68;;;6.13;;
15608;SDS011;64278;45.642;13.756;2023-05-07T10:39:32;6.88;;;6.28;;
15608;SDS011;64278;45.642;13.756;2023-05-07T10:42:07;7.47;;;6.80;;
15608;SDS011;64278;45.642;13.756;2023-05-07T10:44:36;6.85;;;6.32;;
15608;SDS011;64278;45.642;13.756;2023-05-07T10:47:09;7.70;;;6.25;;
15608;SDS011;64278;45.642;13.756;2023-05-07T10:52:25;7.95;;;7.18;;
15608;SDS011;64278;45.642;13.756;2023-05-07T10:57:46;9.80;;;7.30;;
15608;SDS011;64278;45.642;13.756;2023-05-07T11:05:25;8.73;;;7.82;;
15608;SDS011;64278;45.642;13.756;2023-05-07T11:07:54;8.68;;;8.00;;
15608;SDS011;64278;45.642;13.756;2023-05-07T11:10:21;8.90;;;8.02;;
15608;SDS011;64278;45.642;13.756;2023-05-07T11:12:48;8.25;;;7.45;;
15608;SDS011;64278;45.642;13.756;2023-05-07T11:18:18;9.45;;;8.55;;
15608;SDS011;64278;45.642;13.756;2023-05-07T11:20:57;8.50;;;7.80;;
15608;SDS011;64278;45.642;13.756;2023-05-07T11:26:05;9.23;;;8.43;;
15608;SDS011;64278;45.642;13.756;2023-05-07T11:28:42;9.68;;;8.88;;
15608;SDS011;64278;45.642;13.756;2023-05-07T11:31:08;8.15;;;7.35;;
15608;SDS011;64278;45.642;13.756;2023-05-07T11:33:35;8.77;;;8.02;;
15608;SDS011;64278;45.642;13.756;2023-05-07T11:36:03;8.70;;;8.07;;
15608;SDS011;64278;45.642;13.756;2023-05-07T11:38:30;8.52;;;7.72;;
15608;SDS011;64278;45.642;13.756;2023-05-07T11:40:59;8.43;;;7.63;;
15608;SDS011;64278;45.642;13.756;2023-05-07T11:43:29;8.35;;;7.65;;
15608;SDS011;64278;45.642;13.756;2023-05-07T11:46:04;8.25;;;7.65;;
15608;SDS011;64278;45.642;13.756;2023-05-07T11:48:39;7.78;;;7.22;;
15608;SDS011;64278;45.642;13.756;2023-05-07T11:51:06;8.70;;;7.90;;
15608;SDS011;64278;45.642;13.756;2023-05-07T11:53:40;7.38;;;6.88;;
15608;SDS011;64278;45.642;13.756;2023-05-07T11:56:07;7.35;;;6.80;;
15608;SDS011;64278;45.642;13.756;2023-05-07T11:58:37;7.28;;;6.78;;
15608;SDS011;64278;45.642;13.756;2023-05-07T12:01:03;7.90;;;7.30;;
15608;SDS011;64278;45.642;13.756;2023-05-07T12:03:29;7.60;;;6.97;;
15608;SDS011;64278;45.642;13.756;2023-05-07T12:05:54;7.93;;;7.30;;
15608;SDS011;64278;45.642;13.756;2023-05-07T12:08:21;7.35;;;6.75;;
15608;SDS011;64278;45.642;13.756;2023-05-07T12:10:48;7.70;;;7.20;;
15608;SDS011;64278;45.642;13.756;2023-05-07T12:13:15;7.13;;;6.63;;
15608;SDS011;64278;45.642;13.756;2023-05-07T12:15:45;7.30;;;6.80;;
15608;SDS011;64278;45.642;13.756;2023-05-07T12:18:11;8.07;;;7.35;;
15608;SDS011;64278;45.642;13.756;2023-05-07T12:20:37;6.82;;;6.38;;
15608;SDS011;64278;45.642;13.756;2023-05-07T12:23:04;7.07;;;6.57;;
15608;SDS011;64278;45.642;13.756;2023-05-07T12:25:36;6.97;;;6.38;;
15608;SDS011;64278;45.642;13.756;2023-05-07T12:28:02;6.82;;;6.22;;
15608;SDS011;64278;45.642;13.756;2023-05-07T12:30:32;6.43;;;6.03;;
15608;SDS011;64278;45.642;13.756;2023-05-07T12:33:01;7.15;;;6.65;;
15608;SDS011;64278;45.642;13.756;2023-05-07T12:35:28;6.70;;;6.20;;
15608;SDS011;64278;45.642;13.756;2023-05-07T12:37:54;6.85;;;6.32;;
15608;SDS011;64278;45.642;13.756;2023-05-07T12:40:33;6.78;;;6.28;;
15608;SDS011;64278;45.642;13.756;2023-05-07T12:43:01;6.60;;;6.13;;
15608;SDS011;64278;45.642;13.756;2023-05-07T12:45:27;6.10;;;5.60;;
15608;SDS011;64278;45.642;13.756;2023-05-07T12:47:52;6.45;;;5.93;;
15608;SDS011;64278;45.642;13.756;2023-05-07T12:50:18;7.05;;;6.55;;
15608;SDS011;64278;45.642;13.756;2023-05-07T12:52:47;6.07;;;5.65;;
15608;SDS011;64278;45.642;13.756;2023-05-07T12:55:16;6.32;;;5.93;;
15608;SDS011;64278;45.642;13.756;2023-05-07T12:57:43;6.70;;;6.10;;
15608;SDS011;64278;45.642;13.756;2023-05-07T13:00:12;6.50;;;6.00;;
15608;SDS011;64278;45.642;13.756;2023-05-07T13:02:39;6.07;;;5.57;;
15608;SDS011;64278;45.642;13.756;2023-05-07T13:05:06;6.50;;;5.78;;
15608;SDS011;64278;45.642;13.756;2023-05-07T13:07:33;5.78;;;5.38;;
15608;SDS011;64278;45.642;13.756;2023-05-07T13:09:59;6.75;;;6.13;;
15608;SDS011;64278;45.642;13.756;2023-05-07T13:12:24;6.38;;;5.90;;
15608;SDS011;64278;45.642;13.756;2023-05-07T13:14:50;6.07;;;5.55;;
15608;SDS011;64278;45.642;13.756;2023-05-07T13:17:16;6.22;;;5.72;;
15608;SDS011;64278;45.642;13.756;2023-05-07T13:19:41;6.50;;;6.10;;
15608;SDS011;64278;45.642;13.756;2023-05-07T13:22:07;6.47;;;5.88;;
15608;SDS011;64278;45.642;13.756;2023-05-07T13:24:33;5.90;;;5.40;;
15608;SDS011;64278;45.642;13.756;2023-05-07T13:26:59;6.28;;;5.88;;
15608;SDS011;64278;45.642;13.756;2023-05-07T13:29:25;5.90;;;5.50;;
15608;SDS011;64278;45.642;13.756;2023-05-07T13:31:55;6.32;;;5.72;;
15608;SDS011;64278;45.642;13.756;2023-05-07T13:34:21;5.80;;;5.40;;
15608;SDS011;64278;45.642;13.756;2023-05-07T13:36:47;5.88;;;5.47;;
15608;SDS011;64278;45.642;13.756;2023-05-07T13:39:13;6.25;;;5.78;;
15608;SDS011;64278;45.642;13.756;2023-05-07T13:41:39;6.28;;;5.78;;
15608;SDS011;64278;45.642;13.756;2023-05-07T13:44:04;6.35;;;5.88;;
15608;SDS011;64278;45.642;13.756;2023-05-07T13:46:30;5.93;;;5.43;;
15608;SDS011;64278;45.642;13.756;2023-05-07T13:48:56;6.13;;;5.63;;
15608;SDS011;64278;45.642;13.756;2023-05-07T13:51:22;7.32;;;6.68;;
15608;SDS011;64278;45.642;13.756;2023-05-07T13:53:48;6.00;;;5.50;;
15608;SDS011;64278;45.642;13.756;2023-05-07T13:56:13;5.97;;;5.47;;
15608;SDS011;64278;45.642;13.756;2023-05-07T13:58:39;6.45;;;5.95;;
15608;SDS011;64278;45.642;13.756;2023-05-07T14:01:05;5.95;;;5.47;;
15608;SDS011;64278;45.642;13.756;2023-05-07T14:03:31;6.30;;;5.80;;
15608;SDS011;64278;45.642;13.756;2023-05-07T14:05:58;6.15;;;5.65;;
15608;SDS011;64278;45.642;13.756;2023-05-07T14:08:26;6.25;;;5.75;;
15608;SDS011;64278;45.642;13.756;2023-05-07T14:10:52;6.60;;;6.03;;
15608;SDS011;64278;45.642;13.756;2023-05-07T14:13:18;6.25;;;5.70;;
15608;SDS011;64278;45.642;13.756;2023-05-07T14:15:44;6.30;;;5.72;;
15608;SDS011;64278;45.642;13.756;2023-05-07T14:18:14;5.50;;;5.10;;
15608;SDS011;64278;45.642;13.756;2023-05-07T14:20:40;6.43;;;6.00;;
15608;SDS011;64278;45.642;13.756;2023-05-07T14:23:06;5.95;;;5.45;;
15608;SDS011;64278;45.642;13.756;2023-05-07T14:25:31;5.47;;;5.05;;
15608;SDS011;64278;45.642;13.756;2023-05-07T14:27:57;6.25;;;5.75;;
15608;SDS011;64278;45.642;13.756;2023-05-07T14:30:23;6.43;;;5.93;;
15608;SDS011;64278;45.642;13.756;2023-05-07T14:32:49;6.53;;;6.00;;
15608;SDS011;64278;45.642;13.756;2023-05-07T14:35:15;6.18;;;5.68;;
15608;SDS011;64278;45.642;13.756;2023-05-07T14:37:42;6.32;;;5.85;;
15608;SDS011;64278;45.642;13.756;2023-05-07T14:40:08;6.50;;;5.93;;
15608;SDS011;64278;45.642;13.756;2023-05-07T14:42:34;5.20;;;4.78;;
15608;SDS011;64278;45.642;13.756;2023-05-07T14:45:00;6.88;;;6.18;;
15608;SDS011;64278;45.642;13.756;2023-05-07T14:47:26;6.45;;;5.95;;
15608;SDS011;64278;45.642;13.756;2023-05-07T14:49:52;6.85;;;6.35;;